21kousinmaru — JD2168 — position and weather

sailwx.info

Track history (hours):
 
Tides and Currents Weather Stations Pressure Air Temp Water Temp Dewpoint Dewpoint Depression Visibility Wind Speed Wind Dir Waves Ship Positions

21kousinmaru

Last reported at 2018-Apr-26 09:29 UTC. Time now 2018-Apr-26 09:51 UTC.
Position N 33°60' E 131°47'.

Length 68 m; draft 4.5 m.

MMSI: 431501835.

Date/timePositionNaut miles runAvg speedWind from/ knotsBaromVisibWave heightAir tempDewpointWater temp
2018-Apr-26 09:29N 33°60' E 131°47'0 0.0
2018-Apr-26 09:00N 33°60' E 131°47'0 0.0
2018-Apr-26 08:29N 33°60' E 131°47'0 0.0
2018-Apr-26 08:00N 33°60' E 131°47'0 0.0
2018-Apr-26 07:26N 33°60' E 131°47'0 0.0
2018-Apr-26 07:00N 33°60' E 131°47'3 5.2
2018-Apr-26 06:30N 34°02' E 131°48'0 0.0
2018-Apr-26 06:00N 34°02' E 131°48'0 0.0
2018-Apr-26 05:30N 34°02' E 131°48'0 0.0
2018-Apr-26 05:00N 34°02' E 131°48'0 0.0
2018-Apr-26 04:30N 34°02' E 131°48'0 0.0
2018-Apr-26 03:58N 34°02' E 131°48'0 0.0
2018-Apr-26 03:29N 34°02' E 131°48'0 0.0
2018-Apr-26 02:58N 34°02' E 131°48'0 0.0
2018-Apr-26 02:30N 34°02' E 131°48'1 2.4
2018-Apr-26 01:56N 34°01' E 131°47'1 3.0
2018-Apr-26 01:29N 33°60' E 131°47'0 0.0
2018-Apr-26 00:57N 33°60' E 131°47'0 0.0
2018-Apr-26 00:18N 33°60' E 131°47'0 0.0
2018-Apr-25 22:23N 33°60' E 131°47'1 0.2
2018-Apr-25 18:59N 34°01' E 131°47'0 0.0
2018-Apr-25 14:35N 34°01' E 131°47'0 0.0
2018-Apr-25 14:23N 34°01' E 131°47'0 0.1
2018-Apr-25 14:00N 34°01' E 131°47'4 7.3
2018-Apr-25 13:31N 33°57' E 131°46'1612.1
2018-Apr-25 12:13N 33°47' E 132°01'211.7
2018-Apr-25 12:01N 33°46' E 132°03'813.1
2018-Apr-25 11:25N 33°50' E 132°11'2112.4
2018-Apr-25 09:43N 33°54' E 132°36'312.0
2018-Apr-25 09:30N 33°56' E 132°39'611.3
2018-Apr-25 09:00N 33°60' E 132°44'88 3.8
2018-Apr-24 09:52N 34°26' E 134°25'411.8
2018-Apr-24 09:30N 34°28' E 134°30'611.7
2018-Apr-24 09:00N 34°30' E 134°36'612.2
2018-Apr-24 08:30N 34°32' E 134°43'712.8
2018-Apr-24 07:59N 34°35' E 134°51'613.1
2018-Apr-24 07:30N 34°37' E 134°58'713.0
2018-Apr-24 07:00N 34°36' E 135°05'612.3
2018-Apr-24 06:30N 34°34' E 135°13'612.4
2018-Apr-24 06:00N 34°33' E 135°20'4 8.3
2018-Apr-24 05:30N 34°32' E 135°25'0 0.0
2018-Apr-24 05:00N 34°32' E 135°25'0 0.0
2018-Apr-24 04:30N 34°32' E 135°25'0 0.0
2018-Apr-24 04:00N 34°32' E 135°25'0 0.0
2018-Apr-24 03:30N 34°32' E 135°25'0 0.0
2018-Apr-24 03:00N 34°32' E 135°25'0 0.0
2018-Apr-24 02:30N 34°32' E 135°25'0 0.0
2018-Apr-24 02:00N 34°32' E 135°25'0 0.0
2018-Apr-24 01:30N 34°32' E 135°25'0 0.0
2018-Apr-24 01:00N 34°32' E 135°25'0 0.0
2018-Apr-24 00:30N 34°32' E 135°25'0 0.0
2018-Apr-24 00:00N 34°32' E 135°25'0 0.1
2018-Apr-23 23:30N 34°32' E 135°25'4 7.9
2018-Apr-23 23:00N 34°32' E 135°20'0 0.1
2018-Apr-23 22:30N 34°32' E 135°20'0 0.0
2018-Apr-23 22:00N 34°32' E 135°20'0 0.1
2018-Apr-23 21:30N 34°32' E 135°20'0 0.0
2018-Apr-23 21:00N 34°32' E 135°20'0 0.0
2018-Apr-23 20:30N 34°32' E 135°20'0 0.0
2018-Apr-23 20:00N 34°32' E 135°20'0 0.0
2018-Apr-23 19:30N 34°32' E 135°20'0 0.0
2018-Apr-23 19:00N 34°32' E 135°20'0 0.0
2018-Apr-23 18:30N 34°32' E 135°20'0 0.0
2018-Apr-23 18:00N 34°32' E 135°20'0 0.0
2018-Apr-23 17:30N 34°32' E 135°20'0 0.0
2018-Apr-23 17:00N 34°32' E 135°20'0 0.0
2018-Apr-23 16:30N 34°32' E 135°20'0 0.0
2018-Apr-23 16:00N 34°32' E 135°20'0 0.0
2018-Apr-23 15:30N 34°32' E 135°20'0 0.0
2018-Apr-23 15:00N 34°32' E 135°20'0 0.0
2018-Apr-23 14:30N 34°32' E 135°20'0 0.0
2018-Apr-23 14:00N 34°32' E 135°20'0 0.0
2018-Apr-23 13:30N 34°32' E 135°20'0 0.1
2018-Apr-23 13:00N 34°32' E 135°20'0 0.0
2018-Apr-23 12:30N 34°32' E 135°20'0 0.0
2018-Apr-23 12:00N 34°32' E 135°20'0 0.0
2018-Apr-23 11:30N 34°32' E 135°20'0 0.0
2018-Apr-23 11:00N 34°32' E 135°20'0 0.0
2018-Apr-23 10:30N 34°32' E 135°20'0 0.1
2018-Apr-23 10:00N 34°32' E 135°20'0 0.0
2018-Apr-23 09:30N 34°32' E 135°20'0 0.0
2018-Apr-23 09:00N 34°32' E 135°20'0 0.0
2018-Apr-23 08:30N 34°32' E 135°20'0 0.0
2018-Apr-23 08:00N 34°32' E 135°20'0 0.0
2018-Apr-23 07:30N 34°32' E 135°20'0 0.4
2018-Apr-23 07:01N 34°32' E 135°20'612.3
2018-Apr-23 06:30N 34°28' E 135°14'612.8
2018-Apr-23 06:00N 34°24' E 135°08'713.2
2018-Apr-23 05:30N 34°20' E 135°02'611.5
2018-Apr-23 05:00N 34°14' E 134°59'612.4
2018-Apr-23 04:30N 34°08' E 134°60'713.2
2018-Apr-23 04:00N 34°02' E 135°01'612.9
2018-Apr-23 03:30N 33°55' E 135°02'17810.5
2018-Apr-22 10:33N 34°33' E 138°32'411.6
2018-Apr-22 10:15N 34°33' E 138°36'411.2
2018-Apr-22 09:54N 34°34' E 138°41'611.2
2018-Apr-22 09:19N 34°35' E 138°49'410.2
2018-Apr-22 08:54N 34°35' E 138°54'1110.9
2018-Apr-22 07:53N 34°43' E 139°04'511.9
2018-Apr-22 07:29N 34°47' E 139°07'1410.8
2018-Apr-22 06:13N 34°57' E 139°18'210.4
2018-Apr-22 06:00N 34°58' E 139°20'610.5
2018-Apr-22 05:24N 35°01' E 139°27'410.9
2018-Apr-22 05:00N 35°03' E 139°32'611.2
2018-Apr-22 04:30N 35°05' E 139°38'611.3
2018-Apr-22 04:00N 35°09' E 139°44'612.3
2018-Apr-22 03:30N 35°14' E 139°46'612.4
2018-Apr-22 03:00N 35°20' E 139°42'612.0
2018-Apr-22 02:30N 35°26' E 139°44'510.3
2018-Apr-22 02:00N 35°30' E 139°47'2 3.1
2018-Apr-22 01:30N 35°31' E 139°45'0 0.0
2018-Apr-22 01:00N 35°31' E 139°45'0 0.0
2018-Apr-22 00:30N 35°31' E 139°45'0 0.0
2018-Apr-22 00:00N 35°31' E 139°45'0 0.0
2018-Apr-21 23:30N 35°31' E 139°45'0 0.0
2018-Apr-21 23:00N 35°31' E 139°45'1 1.0
2018-Apr-21 22:30N 35°31' E 139°45'3 6.8
2018-Apr-21 22:00N 35°29' E 139°49'0 0.0
2018-Apr-21 21:27N 35°29' E 139°49'0 0.0
2018-Apr-21 21:00N 35°29' E 139°49'0 0.0
2018-Apr-21 20:30N 35°29' E 139°49'0 0.0
2018-Apr-21 20:00N 35°29' E 139°49'0 0.0
2018-Apr-21 19:30N 35°29' E 139°49'0 0.0
2018-Apr-21 19:00N 35°29' E 139°49'0 0.0
2018-Apr-21 18:30N 35°29' E 139°49'0 0.0
2018-Apr-21 17:57N 35°29' E 139°49'0 0.0
2018-Apr-21 17:30N 35°29' E 139°49'0 0.1
2018-Apr-21 17:00N 35°29' E 139°49'0 0.0
2018-Apr-21 16:30N 35°29' E 139°49'0 0.0
2018-Apr-21 16:00N 35°29' E 139°49'0 0.0
2018-Apr-21 15:30N 35°29' E 139°49'0 0.1
2018-Apr-21 14:57N 35°29' E 139°49'0 0.1
2018-Apr-21 14:30N 35°29' E 139°49'0 0.1
2018-Apr-21 13:45N 35°29' E 139°49'0 0.0
2018-Apr-21 13:30N 35°29' E 139°49'0 0.1
2018-Apr-21 12:51N 35°29' E 139°49'0 0.0
2018-Apr-21 12:24N 35°29' E 139°49'0 0.0
2018-Apr-21 12:00N 35°29' E 139°49'0 0.0
2018-Apr-21 11:30N 35°29' E 139°49'0 0.0
2018-Apr-21 10:33N 35°29' E 139°49'0 0.0
2018-Apr-21 10:18N 35°29' E 139°49'0 0.0
2018-Apr-21 09:54N 35°29' E 139°49'1 2.2
2018-Apr-21 09:31N 35°29' E 139°48'713.2
2018-Apr-21 09:01N 35°24' E 139°42'3 5.5
2018-Apr-21 08:31N 35°25' E 139°39'0 0.0
2018-Apr-21 08:00N 35°25' E 139°39'0 0.0
2018-Apr-21 07:31N 35°25' E 139°39'0 0.0
2018-Apr-21 07:00N 35°25' E 139°39'0 0.0
2018-Apr-21 06:31N 35°25' E 139°39'0 0.0
2018-Apr-21 06:01N 35°25' E 139°39'0 0.0
2018-Apr-21 05:30N 35°25' E 139°39'0 0.0
2018-Apr-21 05:00N 35°25' E 139°39'0 0.0
2018-Apr-21 04:31N 35°25' E 139°39'0 0.0
2018-Apr-21 04:01N 35°25' E 139°39'0 0.0
2018-Apr-21 03:31N 35°25' E 139°39'3 5.5
2018-Apr-21 03:00N 35°24' E 139°42'611.3
2018-Apr-21 02:30N 35°28' E 139°47'2 3.3
2018-Apr-21 02:00N 35°29' E 139°49'0 0.0
2018-Apr-21 01:30N 35°29' E 139°49'2 3.5
2018-Apr-21 01:00N 35°30' E 139°47'2 4.1
2018-Apr-21 00:30N 35°31' E 139°45'0 0.0
2018-Apr-21 00:00N 35°31' E 139°45'0 0.0
2018-Apr-20 23:30N 35°31' E 139°45'0 0.0
2018-Apr-20 22:59N 35°31' E 139°45'0 0.1
2018-Apr-20 22:31N 35°31' E 139°45'3 6.6
2018-Apr-20 22:00N 35°30' E 139°49'0 0.7
2018-Apr-20 21:25N 35°29' E 139°49'0 0.0
2018-Apr-20 20:58N 35°29' E 139°49'0 0.0
2018-Apr-20 20:28N 35°29' E 139°49'0 0.0
2018-Apr-20 19:58N 35°29' E 139°49'0 0.1
2018-Apr-20 19:31N 35°29' E 139°49'0 0.1
2018-Apr-20 18:40N 35°29' E 139°49'0 0.0
2018-Apr-20 18:22N 35°29' E 139°49'0 0.0
2018-Apr-20 18:00N 35°29' E 139°49'0 0.0
2018-Apr-20 17:30N 35°29' E 139°49'0 0.0
2018-Apr-20 17:00N 35°29' E 139°49'0 0.0
2018-Apr-20 15:54N 35°29' E 139°49'0 0.0
2018-Apr-20 15:24N 35°29' E 139°49'0 0.0
2018-Apr-20 14:57N 35°29' E 139°49'0 0.0
2018-Apr-20 14:27N 35°29' E 139°49'0 0.0
2018-Apr-20 13:54N 35°29' E 139°49'0 0.0
2018-Apr-20 13:30N 35°29' E 139°49'0 0.0
2018-Apr-20 12:45N 35°29' E 139°49'0 0.0
2018-Apr-20 12:09N 35°29' E 139°49'0 0.1
2018-Apr-20 11:48N 35°29' E 139°49'0 0.2
2018-Apr-20 11:30N 35°29' E 139°49'0 0.0
2018-Apr-20 10:54N 35°29' E 139°49'0 0.1
2018-Apr-20 10:27N 35°29' E 139°49'0 0.0
2018-Apr-20 10:00N 35°29' E 139°49'0 0.0
2018-Apr-20 09:18N 35°29' E 139°49'0 0.0
2018-Apr-20 09:00N 35°29' E 139°49'0 0.0
2018-Apr-20 08:27N 35°29' E 139°49'2 3.4
2018-Apr-20 07:59N 35°28' E 139°48'613.0
2018-Apr-20 07:30N 35°24' E 139°42'3 5.2
2018-Apr-20 07:00N 35°25' E 139°39'0 0.0
2018-Apr-20 06:30N 35°25' E 139°39'0 0.0
2018-Apr-20 06:00N 35°25' E 139°39'0 0.0
2018-Apr-20 05:30N 35°25' E 139°39'0 0.0
2018-Apr-20 05:00N 35°25' E 139°39'0 0.0
2018-Apr-20 04:30N 35°25' E 139°39'2 3.0
2018-Apr-20 04:00N 35°24' E 139°40'611.6
2018-Apr-20 03:31N 35°27' E 139°46'3 6.0
2018-Apr-20 02:58N 35°29' E 139°49'0 0.0
2018-Apr-20 02:30N 35°29' E 139°49'0 0.0
2018-Apr-20 02:00N 35°29' E 139°49'4 7.5
2018-Apr-20 01:29N 35°31' E 139°45'0 0.0
2018-Apr-20 00:51N 35°31' E 139°45'0 0.0
2018-Apr-20 00:28N 35°31' E 139°45'0 0.0
2018-Apr-19 23:59N 35°31' E 139°45'0 0.0
2018-Apr-19 23:29N 35°31' E 139°45'0 0.0
2018-Apr-19 23:00N 35°31' E 139°45'0 0.8
2018-Apr-19 22:30N 35°31' E 139°45'4 7.6
2018-Apr-19 22:00N 35°29' E 139°49'0 0.2
2018-Apr-19 21:29N 35°29' E 139°49'0 0.0
2018-Apr-19 20:59N 35°29' E 139°49'0 0.0
2018-Apr-19 20:29N 35°29' E 139°49'0 0.0
2018-Apr-19 19:59N 35°29' E 139°49'0 0.0
2018-Apr-19 19:26N 35°29' E 139°49'0 0.0
2018-Apr-19 18:59N 35°29' E 139°49'0 0.0
2018-Apr-19 18:29N 35°29' E 139°49'0 0.0
2018-Apr-19 17:59N 35°29' E 139°49'0 0.0
2018-Apr-19 17:29N 35°29' E 139°49'0 0.0
2018-Apr-19 16:59N 35°29' E 139°49'0 0.0
2018-Apr-19 16:29N 35°29' E 139°49'0 0.0
2018-Apr-19 15:59N 35°29' E 139°49'0 0.0
2018-Apr-19 15:29N 35°29' E 139°49'0 0.0
2018-Apr-19 14:59N 35°29' E 139°49'0 0.0
2018-Apr-19 14:29N 35°29' E 139°49'0 0.0
2018-Apr-19 13:59N 35°29' E 139°49'0 0.0
2018-Apr-19 13:29N 35°29' E 139°49'0 0.1
2018-Apr-19 12:59N 35°29' E 139°49'0 0.0
2018-Apr-19 12:29N 35°29' E 139°49'0 0.0
2018-Apr-19 11:59N 35°29' E 139°49'0 0.0
2018-Apr-19 11:29N 35°29' E 139°49'0 0.0
2018-Apr-19 10:56N 35°29' E 139°49'0 0.0
2018-Apr-19 10:29N 35°29' E 139°49'3 6.1
2018-Apr-19 10:00N 35°26' E 139°47'612.8
2018-Apr-19 09:30N 35°20' E 139°45'612.2
2018-Apr-19 09:00N 35°15' E 139°47'612.8
2018-Apr-19 08:30N 35°08' E 139°46'611.8
2018-Apr-19 08:00N 35°03' E 139°42'712.8
2018-Apr-19 07:30N 34°60' E 139°35'3013.9
2018-Apr-19 05:21N 34°42' E 139°06'713.4
2018-Apr-19 04:49N 34°37' E 138°59'413.1
2018-Apr-19 04:30N 34°35' E 138°55'1313.3
2018-Apr-19 03:32N 34°34' E 138°39'313.2
2018-Apr-19 03:19N 34°33' E 138°36'612.9
2018-Apr-19 02:51N 34°32' E 138°29'713.1
2018-Apr-19 02:18N 34°31' E 138°20'512.2
2018-Apr-19 01:55N 34°31' E 138°15'163 9.5
2018-Apr-18 08:51N 34°02' E 135°01'412.2
2018-Apr-18 08:30N 34°06' E 135°00'713.4
2018-Apr-18 08:01N 34°13' E 134°59'713.8
2018-Apr-18 07:30N 34°19' E 134°59'612.9
2018-Apr-18 07:00N 34°24' E 135°05'713.9
2018-Apr-18 06:30N 34°28' E 135°12'612.6
2018-Apr-18 06:00N 34°31' E 135°18'510.3
2018-Apr-18 05:30N 34°32' E 135°25'0 0.2
2018-Apr-18 05:00N 34°32' E 135°25'0 0.0
2018-Apr-18 04:30N 34°32' E 135°25'0 0.0
2018-Apr-18 04:00N 34°32' E 135°25'0 0.0
2018-Apr-18 03:30N 34°32' E 135°25'0 0.0
2018-Apr-18 03:00N 34°32' E 135°25'0 0.0
2018-Apr-18 02:30N 34°32' E 135°25'0 0.0
2018-Apr-18 02:00N 34°32' E 135°25'0 0.0
2018-Apr-18 01:30N 34°32' E 135°25'0 0.0
2018-Apr-18 01:00N 34°32' E 135°25'0 0.0
2018-Apr-18 00:30N 34°32' E 135°25'0 0.0
2018-Apr-18 00:00N 34°32' E 135°25'0 0.0
2018-Apr-17 23:30N 34°32' E 135°25'0 0.0
2018-Apr-17 23:00N 34°32' E 135°25'1 2.1
2018-Apr-17 22:30N 34°32' E 135°24'4 8.1
2018-Apr-17 22:00N 34°33' E 135°19'0 0.0
2018-Apr-17 21:29N 34°33' E 135°19'0 0.0
2018-Apr-17 20:59N 34°33' E 135°19'0 0.1
2018-Apr-17 20:27N 34°33' E 135°19'4 9.5
2018-Apr-17 20:00N 34°33' E 135°14'713.2
2018-Apr-17 19:31N 34°34' E 135°06'714.3
2018-Apr-17 19:00N 34°36' E 134°58'714.8
2018-Apr-17 18:30N 34°33' E 134°49'612.9
2018-Apr-17 18:00N 34°31' E 134°42'612.8
2018-Apr-17 17:30N 34°29' E 134°35'612.6
2018-Apr-17 17:00N 34°26' E 134°28'612.7
2018-Apr-17 16:30N 34°24' E 134°21'713.1
2018-Apr-17 15:58N 34°24' E 134°12'7711.1
2018-Apr-17 09:05N 34°04' E 132°43'112.6
2018-Apr-17 09:00N 34°03' E 132°42'612.1
2018-Apr-17 08:30N 34°03' E 132°35'711.0
2018-Apr-17 07:51N 34°05' E 132°27'412.6
2018-Apr-17 07:30N 34°07' E 132°22'612.9
2018-Apr-17 07:00N 34°11' E 132°16'2 3.2
2018-Apr-17 06:30N 34°12' E 132°14'0 0.0
2018-Apr-17 06:00N 34°12' E 132°14'0 0.0
2018-Apr-17 05:28N 34°12' E 132°14'0 0.0
2018-Apr-17 05:00N 34°12' E 132°14'0 0.0
2018-Apr-17 04:30N 34°12' E 132°14'0 0.0
2018-Apr-17 04:00N 34°12' E 132°14'0 0.0
2018-Apr-17 03:30N 34°12' E 132°14'0 0.0
2018-Apr-17 03:00N 34°12' E 132°14'0 0.0
2018-Apr-17 02:30N 34°12' E 132°14'0 0.0
2018-Apr-17 02:00N 34°12' E 132°14'0 0.0
2018-Apr-17 01:30N 34°12' E 132°14'0 0.0
2018-Apr-17 01:00N 34°12' E 132°14'0 0.0
2018-Apr-17 00:30N 34°12' E 132°14'0 0.0
2018-Apr-17 00:00N 34°12' E 132°14'2 4.1
2018-Apr-16 23:30N 34°11' E 132°16'611.3
2018-Apr-16 22:56N 34°07' E 132°23'812.9
2018-Apr-16 22:17N 34°02' E 132°31'312.3
2018-Apr-16 22:00N 34°03' E 132°35'8411.5
2018-Apr-16 14:42N 34°24' E 134°13'312.2
2018-Apr-16 14:28N 34°24' E 134°16'612.4
2018-Apr-16 13:57N 34°21' E 134°23'512.4
2018-Apr-16 13:30N 34°19' E 134°29'612.8
2018-Apr-16 13:00N 34°16' E 134°36'812.1
2018-Apr-16 12:20N 34°10' E 134°43'412.5
2018-Apr-16 11:59N 34°07' E 134°46'612.3
2018-Apr-16 11:28N 34°02' E 134°51'612.4
2018-Apr-16 11:00N 33°58' E 134°56'612.4
2018-Apr-16 10:29N 33°53' E 135°01'  
Track history (hours):
 
Tides and Currents Weather Stations Pressure Air Temp Water Temp Dewpoint Dewpoint Depression Visibility Wind Speed Wind Dir Waves Ship Positions

21kousinmaru

Last reported at 2018-Apr-26 09:29 UTC. Time now 2018-Apr-26 09:51 UTC.
Position N 33°60' E 131°47'.

Length 68 m; draft 4.5 m.

MMSI: 431501835.

Date/timePositionNaut miles runAvg speedWind from/ knotsBaromVisibWave heightAir tempDewpointWater temp
2018-Apr-26 09:29N 33°60' E 131°47'0 0.0
2018-Apr-26 09:00N 33°60' E 131°47'0 0.0
2018-Apr-26 08:29N 33°60' E 131°47'0 0.0
2018-Apr-26 08:00N 33°60' E 131°47'0 0.0
2018-Apr-26 07:26N 33°60' E 131°47'0 0.0
2018-Apr-26 07:00N 33°60' E 131°47'3 5.2
2018-Apr-26 06:30N 34°02' E 131°48'0 0.0
2018-Apr-26 06:00N 34°02' E 131°48'0 0.0
2018-Apr-26 05:30N 34°02' E 131°48'0 0.0
2018-Apr-26 05:00N 34°02' E 131°48'0 0.0
2018-Apr-26 04:30N 34°02' E 131°48'0 0.0
2018-Apr-26 03:58N 34°02' E 131°48'0 0.0
2018-Apr-26 03:29N 34°02' E 131°48'0 0.0
2018-Apr-26 02:58N 34°02' E 131°48'0 0.0
2018-Apr-26 02:30N 34°02' E 131°48'1 2.4
2018-Apr-26 01:56N 34°01' E 131°47'1 3.0
2018-Apr-26 01:29N 33°60' E 131°47'0 0.0
2018-Apr-26 00:57N 33°60' E 131°47'0 0.0
2018-Apr-26 00:18N 33°60' E 131°47'0 0.0
2018-Apr-25 22:23N 33°60' E 131°47'1 0.2
2018-Apr-25 18:59N 34°01' E 131°47'0 0.0
2018-Apr-25 14:35N 34°01' E 131°47'0 0.0
2018-Apr-25 14:23N 34°01' E 131°47'0 0.1
2018-Apr-25 14:00N 34°01' E 131°47'4 7.3
2018-Apr-25 13:31N 33°57' E 131°46'1612.1
2018-Apr-25 12:13N 33°47' E 132°01'211.7
2018-Apr-25 12:01N 33°46' E 132°03'813.1
2018-Apr-25 11:25N 33°50' E 132°11'2112.4
2018-Apr-25 09:43N 33°54' E 132°36'312.0
2018-Apr-25 09:30N 33°56' E 132°39'611.3
2018-Apr-25 09:00N 33°60' E 132°44'88 3.8
2018-Apr-24 09:52N 34°26' E 134°25'411.8
2018-Apr-24 09:30N 34°28' E 134°30'611.7
2018-Apr-24 09:00N 34°30' E 134°36'612.2
2018-Apr-24 08:30N 34°32' E 134°43'712.8
2018-Apr-24 07:59N 34°35' E 134°51'613.1
2018-Apr-24 07:30N 34°37' E 134°58'713.0
2018-Apr-24 07:00N 34°36' E 135°05'612.3
2018-Apr-24 06:30N 34°34' E 135°13'612.4
2018-Apr-24 06:00N 34°33' E 135°20'4 8.3
2018-Apr-24 05:30N 34°32' E 135°25'0 0.0
2018-Apr-24 05:00N 34°32' E 135°25'0 0.0
2018-Apr-24 04:30N 34°32' E 135°25'0 0.0
2018-Apr-24 04:00N 34°32' E 135°25'0 0.0
2018-Apr-24 03:30N 34°32' E 135°25'0 0.0
2018-Apr-24 03:00N 34°32' E 135°25'0 0.0
2018-Apr-24 02:30N 34°32' E 135°25'0 0.0
2018-Apr-24 02:00N 34°32' E 135°25'0 0.0
2018-Apr-24 01:30N 34°32' E 135°25'0 0.0
2018-Apr-24 01:00N 34°32' E 135°25'0 0.0
2018-Apr-24 00:30N 34°32' E 135°25'0 0.0
2018-Apr-24 00:00N 34°32' E 135°25'0 0.1
2018-Apr-23 23:30N 34°32' E 135°25'4 7.9
2018-Apr-23 23:00N 34°32' E 135°20'0 0.1
2018-Apr-23 22:30N 34°32' E 135°20'0 0.0
2018-Apr-23 22:00N 34°32' E 135°20'0 0.1
2018-Apr-23 21:30N 34°32' E 135°20'0 0.0
2018-Apr-23 21:00N 34°32' E 135°20'0 0.0
2018-Apr-23 20:30N 34°32' E 135°20'0 0.0
2018-Apr-23 20:00N 34°32' E 135°20'0 0.0
2018-Apr-23 19:30N 34°32' E 135°20'0 0.0
2018-Apr-23 19:00N 34°32' E 135°20'0 0.0
2018-Apr-23 18:30N 34°32' E 135°20'0 0.0
2018-Apr-23 18:00N 34°32' E 135°20'0 0.0
2018-Apr-23 17:30N 34°32' E 135°20'0 0.0
2018-Apr-23 17:00N 34°32' E 135°20'0 0.0
2018-Apr-23 16:30N 34°32' E 135°20'0 0.0
2018-Apr-23 16:00N 34°32' E 135°20'0 0.0
2018-Apr-23 15:30N 34°32' E 135°20'0 0.0
2018-Apr-23 15:00N 34°32' E 135°20'0 0.0
2018-Apr-23 14:30N 34°32' E 135°20'0 0.0
2018-Apr-23 14:00N 34°32' E 135°20'0 0.0
2018-Apr-23 13:30N 34°32' E 135°20'0 0.1
2018-Apr-23 13:00N 34°32' E 135°20'0 0.0
2018-Apr-23 12:30N 34°32' E 135°20'0 0.0
2018-Apr-23 12:00N 34°32' E 135°20'0 0.0
2018-Apr-23 11:30N 34°32' E 135°20'0 0.0
2018-Apr-23 11:00N 34°32' E 135°20'0 0.0
2018-Apr-23 10:30N 34°32' E 135°20'0 0.1
2018-Apr-23 10:00N 34°32' E 135°20'0 0.0
2018-Apr-23 09:30N 34°32' E 135°20'0 0.0
2018-Apr-23 09:00N 34°32' E 135°20'0 0.0
2018-Apr-23 08:30N 34°32' E 135°20'0 0.0
2018-Apr-23 08:00N 34°32' E 135°20'0 0.0
2018-Apr-23 07:30N 34°32' E 135°20'0 0.4
2018-Apr-23 07:01N 34°32' E 135°20'612.3
2018-Apr-23 06:30N 34°28' E 135°14'612.8
2018-Apr-23 06:00N 34°24' E 135°08'713.2
2018-Apr-23 05:30N 34°20' E 135°02'611.5
2018-Apr-23 05:00N 34°14' E 134°59'612.4
2018-Apr-23 04:30N 34°08' E 134°60'713.2
2018-Apr-23 04:00N 34°02' E 135°01'612.9
2018-Apr-23 03:30N 33°55' E 135°02'17810.5
2018-Apr-22 10:33N 34°33' E 138°32'411.6
2018-Apr-22 10:15N 34°33' E 138°36'411.2
2018-Apr-22 09:54N 34°34' E 138°41'611.2
2018-Apr-22 09:19N 34°35' E 138°49'410.2
2018-Apr-22 08:54N 34°35' E 138°54'1110.9
2018-Apr-22 07:53N 34°43' E 139°04'511.9
2018-Apr-22 07:29N 34°47' E 139°07'1410.8
2018-Apr-22 06:13N 34°57' E 139°18'210.4
2018-Apr-22 06:00N 34°58' E 139°20'610.5
2018-Apr-22 05:24N 35°01' E 139°27'410.9
2018-Apr-22 05:00N 35°03' E 139°32'611.2
2018-Apr-22 04:30N 35°05' E 139°38'611.3
2018-Apr-22 04:00N 35°09' E 139°44'612.3
2018-Apr-22 03:30N 35°14' E 139°46'612.4
2018-Apr-22 03:00N 35°20' E 139°42'612.0
2018-Apr-22 02:30N 35°26' E 139°44'510.3
2018-Apr-22 02:00N 35°30' E 139°47'2 3.1
2018-Apr-22 01:30N 35°31' E 139°45'0 0.0
2018-Apr-22 01:00N 35°31' E 139°45'0 0.0
2018-Apr-22 00:30N 35°31' E 139°45'0 0.0
2018-Apr-22 00:00N 35°31' E 139°45'0 0.0
2018-Apr-21 23:30N 35°31' E 139°45'0 0.0
2018-Apr-21 23:00N 35°31' E 139°45'1 1.0
2018-Apr-21 22:30N 35°31' E 139°45'3 6.8
2018-Apr-21 22:00N 35°29' E 139°49'0 0.0
2018-Apr-21 21:27N 35°29' E 139°49'0 0.0
2018-Apr-21 21:00N 35°29' E 139°49'0 0.0
2018-Apr-21 20:30N 35°29' E 139°49'0 0.0
2018-Apr-21 20:00N 35°29' E 139°49'0 0.0
2018-Apr-21 19:30N 35°29' E 139°49'0 0.0
2018-Apr-21 19:00N 35°29' E 139°49'0 0.0
2018-Apr-21 18:30N 35°29' E 139°49'0 0.0
2018-Apr-21 17:57N 35°29' E 139°49'0 0.0
2018-Apr-21 17:30N 35°29' E 139°49'0 0.1
2018-Apr-21 17:00N 35°29' E 139°49'0 0.0
2018-Apr-21 16:30N 35°29' E 139°49'0 0.0
2018-Apr-21 16:00N 35°29' E 139°49'0 0.0
2018-Apr-21 15:30N 35°29' E 139°49'0 0.1
2018-Apr-21 14:57N 35°29' E 139°49'0 0.1
2018-Apr-21 14:30N 35°29' E 139°49'0 0.1
2018-Apr-21 13:45N 35°29' E 139°49'0 0.0
2018-Apr-21 13:30N 35°29' E 139°49'0 0.1
2018-Apr-21 12:51N 35°29' E 139°49'0 0.0
2018-Apr-21 12:24N 35°29' E 139°49'0 0.0
2018-Apr-21 12:00N 35°29' E 139°49'0 0.0
2018-Apr-21 11:30N 35°29' E 139°49'0 0.0
2018-Apr-21 10:33N 35°29' E 139°49'0 0.0
2018-Apr-21 10:18N 35°29' E 139°49'0 0.0
2018-Apr-21 09:54N 35°29' E 139°49'1 2.2
2018-Apr-21 09:31N 35°29' E 139°48'713.2
2018-Apr-21 09:01N 35°24' E 139°42'3 5.5
2018-Apr-21 08:31N 35°25' E 139°39'0 0.0
2018-Apr-21 08:00N 35°25' E 139°39'0 0.0
2018-Apr-21 07:31N 35°25' E 139°39'0 0.0
2018-Apr-21 07:00N 35°25' E 139°39'0 0.0
2018-Apr-21 06:31N 35°25' E 139°39'0 0.0
2018-Apr-21 06:01N 35°25' E 139°39'0 0.0
2018-Apr-21 05:30N 35°25' E 139°39'0 0.0
2018-Apr-21 05:00N 35°25' E 139°39'0 0.0
2018-Apr-21 04:31N 35°25' E 139°39'0 0.0
2018-Apr-21 04:01N 35°25' E 139°39'0 0.0
2018-Apr-21 03:31N 35°25' E 139°39'3 5.5
2018-Apr-21 03:00N 35°24' E 139°42'611.3
2018-Apr-21 02:30N 35°28' E 139°47'2 3.3
2018-Apr-21 02:00N 35°29' E 139°49'0 0.0
2018-Apr-21 01:30N 35°29' E 139°49'2 3.5
2018-Apr-21 01:00N 35°30' E 139°47'2 4.1
2018-Apr-21 00:30N 35°31' E 139°45'0 0.0
2018-Apr-21 00:00N 35°31' E 139°45'0 0.0
2018-Apr-20 23:30N 35°31' E 139°45'0 0.0
2018-Apr-20 22:59N 35°31' E 139°45'0 0.1
2018-Apr-20 22:31N 35°31' E 139°45'3 6.6
2018-Apr-20 22:00N 35°30' E 139°49'0 0.7
2018-Apr-20 21:25N 35°29' E 139°49'0 0.0
2018-Apr-20 20:58N 35°29' E 139°49'0 0.0
2018-Apr-20 20:28N 35°29' E 139°49'0 0.0
2018-Apr-20 19:58N 35°29' E 139°49'0 0.1
2018-Apr-20 19:31N 35°29' E 139°49'0 0.1
2018-Apr-20 18:40N 35°29' E 139°49'0 0.0
2018-Apr-20 18:22N 35°29' E 139°49'0 0.0
2018-Apr-20 18:00N 35°29' E 139°49'0 0.0
2018-Apr-20 17:30N 35°29' E 139°49'0 0.0
2018-Apr-20 17:00N 35°29' E 139°49'0 0.0
2018-Apr-20 15:54N 35°29' E 139°49'0 0.0
2018-Apr-20 15:24N 35°29' E 139°49'0 0.0
2018-Apr-20 14:57N 35°29' E 139°49'0 0.0
2018-Apr-20 14:27N 35°29' E 139°49'0 0.0
2018-Apr-20 13:54N 35°29' E 139°49'0 0.0
2018-Apr-20 13:30N 35°29' E 139°49'0 0.0
2018-Apr-20 12:45N 35°29' E 139°49'0 0.0
2018-Apr-20 12:09N 35°29' E 139°49'0 0.1
2018-Apr-20 11:48N 35°29' E 139°49'0 0.2
2018-Apr-20 11:30N 35°29' E 139°49'0 0.0
2018-Apr-20 10:54N 35°29' E 139°49'0 0.1
2018-Apr-20 10:27N 35°29' E 139°49'0 0.0
2018-Apr-20 10:00N 35°29' E 139°49'0 0.0
2018-Apr-20 09:18N 35°29' E 139°49'0 0.0
2018-Apr-20 09:00N 35°29' E 139°49'0 0.0
2018-Apr-20 08:27N 35°29' E 139°49'2 3.4
2018-Apr-20 07:59N 35°28' E 139°48'613.0
2018-Apr-20 07:30N 35°24' E 139°42'3 5.2
2018-Apr-20 07:00N 35°25' E 139°39'0 0.0
2018-Apr-20 06:30N 35°25' E 139°39'0 0.0
2018-Apr-20 06:00N 35°25' E 139°39'0 0.0
2018-Apr-20 05:30N 35°25' E 139°39'0 0.0
2018-Apr-20 05:00N 35°25' E 139°39'0 0.0
2018-Apr-20 04:30N 35°25' E 139°39'2 3.0
2018-Apr-20 04:00N 35°24' E 139°40'611.6
2018-Apr-20 03:31N 35°27' E 139°46'3 6.0
2018-Apr-20 02:58N 35°29' E 139°49'0 0.0
2018-Apr-20 02:30N 35°29' E 139°49'0 0.0
2018-Apr-20 02:00N 35°29' E 139°49'4 7.5
2018-Apr-20 01:29N 35°31' E 139°45'0 0.0
2018-Apr-20 00:51N 35°31' E 139°45'0 0.0
2018-Apr-20 00:28N 35°31' E 139°45'0 0.0
2018-Apr-19 23:59N 35°31' E 139°45'0 0.0
2018-Apr-19 23:29N 35°31' E 139°45'0 0.0
2018-Apr-19 23:00N 35°31' E 139°45'0 0.8
2018-Apr-19 22:30N 35°31' E 139°45'4 7.6
2018-Apr-19 22:00N 35°29' E 139°49'0 0.2
2018-Apr-19 21:29N 35°29' E 139°49'0 0.0
2018-Apr-19 20:59N 35°29' E 139°49'0 0.0
2018-Apr-19 20:29N 35°29' E 139°49'0 0.0
2018-Apr-19 19:59N 35°29' E 139°49'0 0.0
2018-Apr-19 19:26N 35°29' E 139°49'0 0.0
2018-Apr-19 18:59N 35°29' E 139°49'0 0.0
2018-Apr-19 18:29N 35°29' E 139°49'0 0.0
2018-Apr-19 17:59N 35°29' E 139°49'0 0.0
2018-Apr-19 17:29N 35°29' E 139°49'0 0.0
2018-Apr-19 16:59N 35°29' E 139°49'0 0.0
2018-Apr-19 16:29N 35°29' E 139°49'0 0.0
2018-Apr-19 15:59N 35°29' E 139°49'0 0.0
2018-Apr-19 15:29N 35°29' E 139°49'0 0.0
2018-Apr-19 14:59N 35°29' E 139°49'0 0.0
2018-Apr-19 14:29N 35°29' E 139°49'0 0.0
2018-Apr-19 13:59N 35°29' E 139°49'0 0.0
2018-Apr-19 13:29N 35°29' E 139°49'0 0.1
2018-Apr-19 12:59N 35°29' E 139°49'0 0.0
2018-Apr-19 12:29N 35°29' E 139°49'0 0.0
2018-Apr-19 11:59N 35°29' E 139°49'0 0.0
2018-Apr-19 11:29N 35°29' E 139°49'0 0.0
2018-Apr-19 10:56N 35°29' E 139°49'0 0.0
2018-Apr-19 10:29N 35°29' E 139°49'3 6.1
2018-Apr-19 10:00N 35°26' E 139°47'612.8
2018-Apr-19 09:30N 35°20' E 139°45'612.2
2018-Apr-19 09:00N 35°15' E 139°47'612.8
2018-Apr-19 08:30N 35°08' E 139°46'611.8
2018-Apr-19 08:00N 35°03' E 139°42'712.8
2018-Apr-19 07:30N 34°60' E 139°35'3013.9
2018-Apr-19 05:21N 34°42' E 139°06'713.4
2018-Apr-19 04:49N 34°37' E 138°59'413.1
2018-Apr-19 04:30N 34°35' E 138°55'1313.3
2018-Apr-19 03:32N 34°34' E 138°39'313.2
2018-Apr-19 03:19N 34°33' E 138°36'612.9
2018-Apr-19 02:51N 34°32' E 138°29'713.1
2018-Apr-19 02:18N 34°31' E 138°20'512.2
2018-Apr-19 01:55N 34°31' E 138°15'163 9.5
2018-Apr-18 08:51N 34°02' E 135°01'412.2
2018-Apr-18 08:30N 34°06' E 135°00'713.4
2018-Apr-18 08:01N 34°13' E 134°59'713.8
2018-Apr-18 07:30N 34°19' E 134°59'612.9
2018-Apr-18 07:00N 34°24' E 135°05'713.9
2018-Apr-18 06:30N 34°28' E 135°12'612.6
2018-Apr-18 06:00N 34°31' E 135°18'510.3
2018-Apr-18 05:30N 34°32' E 135°25'0 0.2
2018-Apr-18 05:00N 34°32' E 135°25'0 0.0
2018-Apr-18 04:30N 34°32' E 135°25'0 0.0
2018-Apr-18 04:00N 34°32' E 135°25'0 0.0
2018-Apr-18 03:30N 34°32' E 135°25'0 0.0
2018-Apr-18 03:00N 34°32' E 135°25'0 0.0
2018-Apr-18 02:30N 34°32' E 135°25'0 0.0
2018-Apr-18 02:00N 34°32' E 135°25'0 0.0
2018-Apr-18 01:30N 34°32' E 135°25'0 0.0
2018-Apr-18 01:00N 34°32' E 135°25'0 0.0
2018-Apr-18 00:30N 34°32' E 135°25'0 0.0
2018-Apr-18 00:00N 34°32' E 135°25'0 0.0
2018-Apr-17 23:30N 34°32' E 135°25'0 0.0
2018-Apr-17 23:00N 34°32' E 135°25'1 2.1
2018-Apr-17 22:30N 34°32' E 135°24'4 8.1
2018-Apr-17 22:00N 34°33' E 135°19'0 0.0
2018-Apr-17 21:29N 34°33' E 135°19'0 0.0
2018-Apr-17 20:59N 34°33' E 135°19'0 0.1
2018-Apr-17 20:27N 34°33' E 135°19'4 9.5
2018-Apr-17 20:00N 34°33' E 135°14'713.2
2018-Apr-17 19:31N 34°34' E 135°06'714.3
2018-Apr-17 19:00N 34°36' E 134°58'714.8
2018-Apr-17 18:30N 34°33' E 134°49'612.9
2018-Apr-17 18:00N 34°31' E 134°42'612.8
2018-Apr-17 17:30N 34°29' E 134°35'612.6
2018-Apr-17 17:00N 34°26' E 134°28'612.7
2018-Apr-17 16:30N 34°24' E 134°21'713.1
2018-Apr-17 15:58N 34°24' E 134°12'7711.1
2018-Apr-17 09:05N 34°04' E 132°43'112.6
2018-Apr-17 09:00N 34°03' E 132°42'612.1
2018-Apr-17 08:30N 34°03' E 132°35'711.0
2018-Apr-17 07:51N 34°05' E 132°27'412.6
2018-Apr-17 07:30N 34°07' E 132°22'612.9
2018-Apr-17 07:00N 34°11' E 132°16'2 3.2
2018-Apr-17 06:30N 34°12' E 132°14'0 0.0
2018-Apr-17 06:00N 34°12' E 132°14'0 0.0
2018-Apr-17 05:28N 34°12' E 132°14'0 0.0
2018-Apr-17 05:00N 34°12' E 132°14'0 0.0
2018-Apr-17 04:30N 34°12' E 132°14'0 0.0
2018-Apr-17 04:00N 34°12' E 132°14'0 0.0
2018-Apr-17 03:30N 34°12' E 132°14'0 0.0
2018-Apr-17 03:00N 34°12' E 132°14'0 0.0
2018-Apr-17 02:30N 34°12' E 132°14'0 0.0
2018-Apr-17 02:00N 34°12' E 132°14'0 0.0
2018-Apr-17 01:30N 34°12' E 132°14'0 0.0
2018-Apr-17 01:00N 34°12' E 132°14'0 0.0
2018-Apr-17 00:30N 34°12' E 132°14'0 0.0
2018-Apr-17 00:00N 34°12' E 132°14'2 4.1
2018-Apr-16 23:30N 34°11' E 132°16'611.3
2018-Apr-16 22:56N 34°07' E 132°23'812.9
2018-Apr-16 22:17N 34°02' E 132°31'312.3
2018-Apr-16 22:00N 34°03' E 132°35'8411.5
2018-Apr-16 14:42N 34°24' E 134°13'312.2
2018-Apr-16 14:28N 34°24' E 134°16'612.4
2018-Apr-16 13:57N 34°21' E 134°23'512.4
2018-Apr-16 13:30N 34°19' E 134°29'612.8
2018-Apr-16 13:00N 34°16' E 134°36'812.1
2018-Apr-16 12:20N 34°10' E 134°43'412.5
2018-Apr-16 11:59N 34°07' E 134°46'612.3
2018-Apr-16 11:28N 34°02' E 134°51'612.4
2018-Apr-16 11:00N 33°58' E 134°56'612.4
2018-Apr-16 10:29N 33°53' E 135°01'  

Dump ship's entire track history